createdAt,value
2024-05-09T00:00:49.341Z,64.22
2024-05-09T00:03:43.642Z,64.44
2024-05-09T00:06:13.426Z,65.34
2024-05-09T00:08:42.720Z,65.70
2024-05-09T00:11:16.107Z,65.50
2024-05-09T00:13:45.297Z,66.02
2024-05-09T00:16:14.037Z,65.98
2024-05-09T00:18:43.441Z,66.71
2024-05-09T00:21:13.156Z,67.33
2024-05-09T00:23:42.347Z,67.38
2024-05-09T00:26:15.418Z,68.07
2024-05-09T00:28:44.499Z,68.21
2024-05-09T00:31:13.544Z,69.04
2024-05-09T00:33:42.549Z,68.67
2024-05-09T00:36:11.835Z,68.03
2024-05-09T00:38:47.322Z,67.88
2024-05-09T00:41:18.890Z,68.06
2024-05-09T00:43:48.241Z,68.46
2024-05-09T00:46:17.674Z,68.76
2024-05-09T00:48:47.201Z,68.68
2024-05-09T00:51:17.029Z,68.70
2024-05-09T00:53:47.081Z,69.17
2024-05-09T00:56:16.805Z,69.38
2024-05-09T00:58:45.975Z,69.20
2024-05-09T01:01:18.861Z,70.09
2024-05-09T01:03:51.194Z,70.19
2024-05-09T01:06:21.225Z,70.98
2024-05-09T01:08:50.737Z,71.13
2024-05-09T01:11:20.690Z,70.73
2024-05-09T01:13:49.838Z,70.73
2024-05-09T01:16:18.490Z,70.69
2024-05-09T01:18:47.686Z,71.14
2024-05-09T01:21:17.150Z,71.38
2024-05-09T01:23:46.406Z,72.27
2024-05-09T01:26:15.199Z,72.44
2024-05-09T01:28:44.397Z,72.89
2024-05-09T01:31:15.752Z,72.83
2024-05-09T01:33:44.970Z,72.73
2024-05-09T01:36:14.178Z,72.45
2024-05-09T01:38:42.769Z,72.19
2024-05-09T01:41:11.925Z,71.99
2024-05-09T01:43:41.032Z,71.77
2024-05-09T01:46:15.070Z,71.72
2024-05-09T01:48:44.356Z,72.17
2024-05-09T01:51:13.574Z,72.89
2024-05-09T01:53:43.546Z,72.71
2024-05-09T01:56:12.752Z,72.92
2024-05-09T01:58:41.955Z,73.04
2024-05-09T02:01:11.368Z,73.03
2024-05-09T02:03:40.739Z,72.35
2024-05-09T02:06:09.732Z,72.48
2024-05-09T02:08:39.236Z,73.16
2024-05-09T02:11:10.394Z,73.74
2024-05-09T02:13:41.243Z,73.25
2024-05-09T02:16:14.464Z,73.63
2024-05-09T02:18:43.600Z,75.03
2024-05-09T02:21:12.831Z,75.07
2024-05-09T02:23:42.017Z,75.98
2024-05-09T02:26:11.299Z,76.00
2024-05-09T02:28:40.622Z,76.63
2024-05-09T02:31:13.168Z,76.65
2024-05-09T02:33:42.377Z,76.84
2024-05-09T02:36:12.413Z,76.63
2024-05-09T02:38:41.525Z,77.26
2024-05-09T02:41:10.867Z,76.84
2024-05-09T02:43:40.135Z,77.09
2024-05-09T02:46:09.236Z,76.42
2024-05-09T02:48:38.461Z,75.97
2024-05-09T02:51:07.581Z,75.74
2024-05-09T02:53:36.200Z,76.00
2024-05-09T02:56:05.888Z,76.44
2024-05-09T02:58:34.972Z,76.23
2024-05-09T03:01:04.089Z,76.67
2024-05-09T03:03:33.596Z,77.23
2024-05-09T03:06:02.522Z,77.37
2024-05-09T03:08:31.684Z,75.17
2024-05-09T03:11:00.430Z,76.53
2024-05-09T03:13:29.546Z,77.11
2024-05-09T03:15:59.852Z,74.98
2024-05-09T03:18:28.945Z,74.18
2024-05-09T03:20:58.132Z,74.01
2024-05-09T03:23:26.809Z,73.59
2024-05-09T03:25:55.869Z,73.77
2024-05-09T03:28:24.487Z,73.79
2024-05-09T03:30:53.009Z,75.25
2024-05-09T03:33:22.556Z,75.14
2024-05-09T03:35:51.849Z,73.40
2024-05-09T03:38:20.505Z,73.42
2024-05-09T03:40:50.887Z,72.94
2024-05-09T03:43:20.315Z,73.09
2024-05-09T03:45:50.536Z,75.37
2024-05-09T03:48:20.132Z,75.39
2024-05-09T03:50:50.390Z,73.51
2024-05-09T03:53:19.673Z,73.25
2024-05-09T03:55:49.700Z,73.35
2024-05-09T03:58:19.030Z,72.65
2024-05-09T04:00:48.369Z,72.36
2024-05-09T04:03:17.188Z,72.64
2024-05-09T04:05:46.631Z,72.98
2024-05-09T04:08:15.789Z,72.84
2024-05-09T04:10:45.185Z,72.91
2024-05-09T04:13:14.343Z,72.58
2024-05-09T04:15:43.298Z,72.63
2024-05-09T04:18:12.746Z,72.02
2024-05-09T04:20:41.661Z,72.24
2024-05-09T04:23:13.557Z,71.62
2024-05-09T04:25:45.078Z,71.70
2024-05-09T04:28:14.798Z,71.54
2024-05-09T04:30:43.961Z,71.46
2024-05-09T04:33:14.788Z,70.21
2024-05-09T04:35:45.126Z,69.76
2024-05-09T04:38:15.493Z,69.74
2024-05-09T04:40:45.177Z,69.43
2024-05-09T04:43:16.709Z,69.17
2024-05-09T04:45:45.752Z,68.87
2024-05-09T04:48:16.044Z,69.39
2024-05-09T04:50:45.438Z,68.99
2024-05-09T04:53:17.361Z,68.98
2024-05-09T04:55:46.822Z,68.27
2024-05-09T04:58:16.018Z,68.13
2024-05-09T05:00:44.732Z,67.86
2024-05-09T05:03:16.068Z,67.46
2024-05-09T05:05:48.195Z,66.73
2024-05-09T05:08:18.876Z,65.97
2024-05-09T05:10:49.119Z,66.42
2024-05-09T05:13:24.682Z,66.45
2024-05-09T05:15:56.780Z,65.82
2024-05-09T05:18:27.946Z,65.18
2024-05-09T05:20:58.523Z,65.03
2024-05-09T05:23:27.859Z,64.93
2024-05-09T05:25:57.142Z,64.95
2024-05-09T05:28:26.453Z,64.92
2024-05-09T05:30:55.369Z,64.31
2024-05-09T05:33:24.644Z,63.96
2024-05-09T05:35:53.722Z,64.70
2024-05-09T05:38:26.040Z,64.93
2024-05-09T05:40:57.076Z,64.32
2024-05-09T05:43:26.251Z,62.29
2024-05-09T05:45:54.872Z,61.63
2024-05-09T05:48:24.074Z,62.98
2024-05-09T05:50:53.186Z,63.22
2024-05-09T05:53:22.431Z,61.75
2024-05-09T05:55:51.700Z,61.23
2024-05-09T05:58:21.458Z,62.03
2024-05-09T06:00:52.828Z,61.99
2024-05-09T06:03:22.046Z,60.91
2024-05-09T06:05:51.101Z,60.91
2024-05-09T06:08:20.413Z,61.16
2024-05-09T06:10:49.847Z,60.08
2024-05-09T06:13:20.300Z,60.52
2024-05-09T06:15:49.419Z,59.33
2024-05-09T06:18:18.772Z,58.59
2024-05-09T06:20:47.684Z,60.56
2024-05-09T06:23:16.959Z,60.67
2024-05-09T06:25:45.638Z,58.73
2024-05-09T06:28:14.793Z,58.75
2024-05-09T06:30:43.944Z,58.56
2024-05-09T06:33:15.335Z,57.78
2024-05-09T06:35:46.082Z,58.40
2024-05-09T06:38:15.410Z,57.34
2024-05-09T06:40:45.019Z,56.89
2024-05-09T06:43:17.124Z,56.86
2024-05-09T06:45:54.011Z,57.30
2024-05-09T06:48:23.467Z,57.06
2024-05-09T06:50:52.746Z,56.94
2024-05-09T06:53:23.285Z,57.06
2024-05-09T06:55:52.596Z,55.96
2024-05-09T06:58:21.799Z,56.68
2024-05-09T07:00:50.609Z,56.01
2024-05-09T07:03:20.153Z,55.96
2024-05-09T07:05:50.108Z,55.62
2024-05-09T07:08:19.681Z,55.14
2024-05-09T07:10:49.524Z,54.47
2024-05-09T07:13:18.672Z,52.72
2024-05-09T07:15:47.654Z,54.01
2024-05-09T07:18:18.298Z,53.16
2024-05-09T07:20:49.592Z,52.81
2024-05-09T07:23:19.874Z,49.59
2024-05-09T07:25:49.104Z,50.77
2024-05-09T07:28:21.260Z,51.20
2024-05-09T07:30:50.344Z,50.72
2024-05-09T07:33:22.479Z,49.28
2024-05-09T07:35:52.693Z,49.51
2024-05-09T07:38:22.298Z,49.29
2024-05-09T07:40:51.596Z,48.80
2024-05-09T07:43:20.754Z,48.25
2024-05-09T07:45:53.684Z,47.98
2024-05-09T07:52:45.983Z,47.46
2024-05-09T07:53:50.780Z,46.85
2024-05-09T07:56:23.946Z,47.97
2024-05-09T07:58:54.515Z,48.03
2024-05-09T08:01:26.352Z,48.47
2024-05-09T08:03:55.829Z,48.60
2024-05-09T08:06:25.473Z,47.69
2024-05-09T08:08:54.528Z,46.89
2024-05-09T08:11:23.914Z,45.74
2024-05-09T08:13:53.087Z,45.15
2024-05-09T08:16:22.730Z,44.73
2024-05-09T08:18:52.142Z,45.34
2024-05-09T08:21:21.279Z,44.67
2024-05-09T08:23:50.001Z,44.64
2024-05-09T08:26:19.226Z,43.90
2024-05-09T08:28:48.738Z,43.48
2024-05-09T08:31:17.769Z,43.11
2024-05-09T08:33:47.942Z,42.03
2024-05-09T08:36:17.868Z,42.75
2024-05-09T08:38:47.034Z,42.91
2024-05-09T08:41:15.973Z,43.18
2024-05-09T08:43:46.359Z,43.71
2024-05-09T08:46:18.155Z,42.46
2024-05-09T08:48:49.341Z,41.52
2024-05-09T08:51:18.717Z,42.42
2024-05-09T08:53:47.750Z,43.69
2024-05-09T08:56:18.677Z,43.81
2024-05-09T08:58:49.814Z,43.13
2024-05-09T09:01:19.527Z,43.14
2024-05-09T09:03:51.186Z,42.52
2024-05-09T09:06:21.756Z,43.59
2024-05-09T09:08:51.133Z,41.69
2024-05-09T09:11:20.136Z,40.85
2024-05-09T09:13:49.414Z,40.31
2024-05-09T09:16:18.593Z,42.53
2024-05-09T09:18:48.156Z,42.54
2024-05-09T09:21:17.772Z,43.14
2024-05-09T09:23:46.817Z,42.93
2024-05-09T09:26:16.536Z,42.99
2024-05-09T09:28:46.665Z,42.78
2024-05-09T09:31:19.348Z,42.40
2024-05-09T09:33:48.657Z,41.75
2024-05-09T09:36:18.240Z,41.16
2024-05-09T09:38:47.740Z,40.89
2024-05-09T09:41:17.532Z,41.15
2024-05-09T09:43:47.926Z,42.58
2024-05-09T09:46:19.059Z,43.25
2024-05-09T09:48:48.993Z,43.19
2024-05-09T09:51:19.535Z,41.67
2024-05-09T09:53:52.215Z,41.07
2024-05-09T09:56:21.555Z,40.16
2024-05-09T09:58:51.668Z,41.55
2024-05-09T10:01:20.831Z,42.49
2024-05-09T10:03:50.082Z,41.15
2024-05-09T10:06:19.900Z,41.57
2024-05-09T10:08:50.053Z,40.67
2024-05-09T10:11:22.540Z,40.92
2024-05-09T10:13:53.438Z,39.91
2024-05-09T10:16:23.402Z,40.01
2024-05-09T10:18:52.951Z,39.12
2024-05-09T10:21:21.994Z,38.92
2024-05-09T10:24:01.818Z,38.84
2024-05-09T10:26:33.682Z,39.60
2024-05-09T10:29:17.450Z,40.97
2024-05-09T10:31:47.476Z,42.30
2024-05-09T10:34:22.425Z,41.46
2024-05-09T10:36:56.393Z,40.90
2024-05-09T10:39:25.839Z,41.93
2024-05-09T10:41:54.985Z,42.82
2024-05-09T10:44:23.669Z,40.11
2024-05-09T10:46:54.405Z,40.39
2024-05-09T10:49:23.845Z,40.50
2024-05-09T10:51:52.913Z,39.07
2024-05-09T10:54:22.517Z,40.22
2024-05-09T10:56:58.115Z,40.26
2024-05-09T10:59:35.654Z,39.64
2024-05-09T11:02:07.514Z,39.92
2024-05-09T11:04:38.952Z,39.97
2024-05-09T11:07:17.799Z,38.61
2024-05-09T11:09:48.539Z,36.70
2024-05-09T11:12:19.323Z,36.07
2024-05-09T11:14:55.910Z,36.81
2024-05-09T11:17:25.887Z,36.50
2024-05-09T11:19:55.103Z,38.81
2024-05-09T11:22:31.947Z,38.71
2024-05-09T11:25:00.940Z,38.27
2024-05-09T11:27:31.512Z,35.94
2024-05-09T11:30:01.544Z,35.05
2024-05-09T11:32:30.974Z,36.67
2024-05-09T11:35:00.178Z,36.04
2024-05-09T11:37:30.489Z,35.39
2024-05-09T11:40:00.186Z,34.22
2024-05-09T11:42:29.450Z,35.04
2024-05-09T11:44:58.504Z,34.20
2024-05-09T11:47:27.643Z,35.19
2024-05-09T11:49:56.923Z,36.17
2024-05-09T11:52:25.661Z,35.47
2024-05-09T11:54:54.734Z,35.37
2024-05-09T11:57:24.284Z,35.90
2024-05-09T11:59:52.933Z,35.52
2024-05-09T12:02:21.694Z,36.21
2024-05-09T12:04:51.251Z,37.21
2024-05-09T12:07:20.795Z,37.05
2024-05-09T12:09:49.578Z,33.42
2024-05-09T12:12:18.949Z,33.87
2024-05-09T12:14:47.976Z,31.92
2024-05-09T12:17:17.049Z,32.60
2024-05-09T12:19:46.147Z,32.62
2024-05-09T12:22:15.602Z,33.59
2024-05-09T12:24:44.889Z,33.40
2024-05-09T12:27:14.028Z,34.16
2024-05-09T12:29:43.318Z,34.71
2024-05-09T12:32:12.407Z,34.43
2024-05-09T12:34:41.842Z,33.11
2024-05-09T12:37:11.141Z,33.95
2024-05-09T12:39:39.873Z,34.13
2024-05-09T12:42:10.916Z,33.80
2024-05-09T12:44:41.562Z,34.12
2024-05-09T12:47:10.277Z,33.82
2024-05-09T12:49:39.497Z,35.68
2024-05-09T12:52:08.813Z,34.75
2024-05-09T12:54:38.000Z,34.34
2024-05-09T12:57:07.375Z,34.34
2024-05-09T12:59:36.103Z,34.75
2024-05-09T13:02:05.604Z,34.91
2024-05-09T13:04:35.180Z,34.44
2024-05-09T13:07:07.230Z,35.06
2024-05-09T13:09:36.442Z,36.38
2024-05-09T13:12:05.707Z,34.59
2024-05-09T13:14:34.812Z,34.59
2024-05-09T13:17:05.007Z,33.39
2024-05-09T13:19:34.323Z,34.45
2024-05-09T13:22:04.177Z,33.95
2024-05-09T13:24:33.382Z,34.62
2024-05-09T13:27:02.566Z,33.60
2024-05-09T13:29:31.414Z,33.42
2024-05-09T13:32:00.709Z,34.22
2024-05-09T13:34:29.909Z,34.33
2024-05-09T13:36:59.018Z,34.12
2024-05-09T13:39:28.227Z,34.54
2024-05-09T13:41:57.311Z,33.93
2024-05-09T13:44:26.366Z,34.22
2024-05-09T13:46:55.543Z,34.37
2024-05-09T13:49:24.876Z,33.97
2024-05-09T13:51:54.271Z,33.69
2024-05-09T13:54:23.121Z,32.41
2024-05-09T13:56:52.344Z,34.43
2024-05-09T13:59:20.942Z,33.92
2024-05-09T14:01:52.045Z,33.02
2024-05-09T14:04:21.439Z,33.74
2024-05-09T14:06:50.860Z,32.97
2024-05-09T14:09:20.092Z,33.40
2024-05-09T14:11:49.297Z,31.88
2024-05-09T14:14:17.868Z,32.32
2024-05-09T14:16:47.226Z,33.34
2024-05-09T14:19:16.947Z,33.08
2024-05-09T14:21:46.333Z,33.19
2024-05-09T14:24:15.877Z,32.77
2024-05-09T14:26:44.981Z,32.09
2024-05-09T14:29:14.154Z,31.81
2024-05-09T14:31:43.265Z,29.91
2024-05-09T14:34:12.149Z,30.76
2024-05-09T14:36:41.595Z,32.97
2024-05-09T14:39:10.786Z,31.76
2024-05-09T14:41:40.583Z,31.41
2024-05-09T14:44:11.531Z,30.95
2024-05-09T14:46:41.174Z,30.84
2024-05-09T14:49:12.322Z,31.20
2024-05-09T14:51:46.913Z,31.32
2024-05-09T14:54:16.110Z,31.22
2024-05-09T14:56:45.388Z,30.76
2024-05-09T14:59:14.165Z,30.64
2024-05-09T15:01:43.205Z,30.54
2024-05-09T15:04:12.504Z,31.95
2024-05-09T15:06:42.176Z,32.26
2024-05-09T15:09:11.340Z,31.94
2024-05-09T15:11:40.426Z,31.42
2024-05-09T15:14:09.544Z,31.92
2024-05-09T15:16:39.044Z,33.91
2024-05-09T15:19:08.878Z,34.28
2024-05-09T15:21:38.064Z,33.03
2024-05-09T15:24:07.098Z,33.43
2024-05-09T15:26:36.817Z,33.29
2024-05-09T15:29:06.004Z,33.78
2024-05-09T15:31:35.212Z,34.35
2024-05-09T15:34:04.762Z,33.25
2024-05-09T15:36:34.313Z,32.95
2024-05-09T15:39:03.416Z,33.16
2024-05-09T15:41:32.538Z,33.03
2024-05-09T15:44:01.743Z,33.07
2024-05-09T15:46:30.720Z,32.96
2024-05-09T15:49:02.019Z,34.34
2024-05-09T15:51:34.602Z,35.56
2024-05-09T15:54:03.697Z,34.63
2024-05-09T15:56:32.821Z,34.49
2024-05-09T15:59:03.802Z,34.89
2024-05-09T16:01:35.447Z,34.68
2024-05-09T16:04:05.316Z,34.81
2024-05-09T16:06:34.624Z,34.35
2024-05-09T16:09:04.386Z,34.36
2024-05-09T16:11:34.935Z,34.11
2024-05-09T16:14:04.825Z,34.03
2024-05-09T16:16:34.193Z,33.66
2024-05-09T16:19:02.904Z,34.51
2024-05-09T16:21:31.989Z,34.66
2024-05-09T16:24:01.074Z,35.26
2024-05-09T16:26:29.811Z,35.28
2024-05-09T16:28:58.884Z,34.02
2024-05-09T16:31:28.131Z,34.45
2024-05-09T16:33:57.444Z,35.78
2024-05-09T16:36:26.915Z,36.35
2024-05-09T16:38:57.280Z,37.17
2024-05-09T16:41:26.361Z,37.43
2024-05-09T16:43:57.683Z,37.59
2024-05-09T16:46:28.008Z,36.85
2024-05-09T16:48:57.379Z,36.98
2024-05-09T16:51:26.042Z,37.18
2024-05-09T16:53:55.210Z,37.19
2024-05-09T16:56:24.487Z,37.61
2024-05-09T16:58:53.468Z,37.04
2024-05-09T17:01:22.550Z,36.10
2024-05-09T17:03:51.905Z,37.15
2024-05-09T17:06:21.304Z,38.05
2024-05-09T17:08:50.391Z,38.63
2024-05-09T17:11:19.448Z,39.11
2024-05-09T17:13:48.454Z,38.56
2024-05-09T17:16:18.088Z,38.18
2024-05-09T17:18:48.597Z,38.44
2024-05-09T17:21:18.314Z,38.75
2024-05-09T17:23:47.904Z,39.25
2024-05-09T17:26:16.862Z,38.57
2024-05-09T17:28:46.275Z,38.93
2024-05-09T17:31:15.316Z,39.16
2024-05-09T17:33:44.100Z,39.77
2024-05-09T17:36:13.253Z,39.00
2024-05-09T17:38:42.316Z,39.91
2024-05-09T17:41:11.418Z,40.52
2024-05-09T17:43:40.520Z,40.50
2024-05-09T17:46:09.736Z,41.16
2024-05-09T17:48:38.652Z,41.54
2024-05-09T17:51:07.841Z,41.52
2024-05-09T17:53:36.902Z,42.32
2024-05-09T17:56:07.773Z,42.56
2024-05-09T17:58:36.829Z,43.43
2024-05-09T18:01:05.633Z,43.85
2024-05-09T18:03:34.972Z,44.13
2024-05-09T18:06:05.102Z,44.45
2024-05-09T18:08:35.004Z,44.38
2024-05-09T18:11:04.413Z,44.29
2024-05-09T18:13:33.937Z,44.60
2024-05-09T18:16:03.092Z,44.77
2024-05-09T18:18:33.350Z,45.32
2024-05-09T18:21:02.508Z,45.62
2024-05-09T18:23:32.198Z,45.70
2024-05-09T18:26:01.017Z,46.24
2024-05-09T18:28:29.972Z,46.53
2024-05-09T18:30:59.175Z,47.07
2024-05-09T18:33:28.465Z,47.35
2024-05-09T18:35:57.654Z,49.23
2024-05-09T18:38:27.096Z,49.45
2024-05-09T18:40:56.157Z,49.03
2024-05-09T18:43:31.138Z,48.56
2024-05-09T18:46:04.566Z,48.15
2024-05-09T18:48:34.341Z,47.97
2024-05-09T18:51:05.246Z,48.02
2024-05-09T18:53:34.481Z,48.30
2024-05-09T18:56:03.807Z,48.24
2024-05-09T18:58:33.543Z,48.48
2024-05-09T19:01:02.724Z,49.21
2024-05-09T19:03:31.787Z,49.55
2024-05-09T19:06:01.514Z,50.18
2024-05-09T19:08:30.862Z,50.70
2024-05-09T19:10:59.675Z,51.05
2024-05-09T19:13:28.863Z,51.76
2024-05-09T19:15:57.654Z,51.01
2024-05-09T19:18:27.356Z,50.90
2024-05-09T19:20:56.947Z,51.23
2024-05-09T19:23:25.640Z,51.76
2024-05-09T19:25:54.908Z,52.46
2024-05-09T19:28:24.061Z,53.53
2024-05-09T19:30:53.264Z,53.50
2024-05-09T19:33:22.531Z,52.94
2024-05-09T19:35:51.730Z,53.21
2024-05-09T19:38:20.790Z,53.99
2024-05-09T19:40:50.084Z,54.89
2024-05-09T19:43:19.576Z,54.84
2024-05-09T19:45:48.392Z,54.47
2024-05-09T19:48:17.985Z,54.45
2024-05-09T19:50:48.326Z,54.37
2024-05-09T19:53:20.036Z,55.43
2024-05-09T19:55:49.080Z,55.58
2024-05-09T19:58:18.109Z,55.65
2024-05-09T20:00:47.444Z,55.48
2024-05-09T20:03:16.970Z,55.14
2024-05-09T20:05:46.989Z,55.50
2024-05-09T20:08:16.946Z,55.88
2024-05-09T20:10:46.294Z,56.30
2024-05-09T20:13:16.694Z,56.70
2024-05-09T20:15:45.854Z,56.68
2024-05-09T20:18:18.504Z,56.55
2024-05-09T20:20:48.407Z,56.55
2024-05-09T20:23:18.729Z,57.00
2024-05-09T20:25:47.348Z,57.15
2024-05-09T20:28:16.571Z,57.80
2024-05-09T20:30:45.831Z,57.80
2024-05-09T20:33:15.019Z,58.31
2024-05-09T20:35:44.054Z,58.64
2024-05-09T20:38:13.058Z,59.23
2024-05-09T20:40:43.559Z,59.52
2024-05-09T20:43:13.083Z,59.68
2024-05-09T20:45:42.372Z,59.22
2024-05-09T20:48:11.761Z,58.95
2024-05-09T20:50:42.490Z,59.81
2024-05-09T20:53:13.754Z,61.03
2024-05-09T20:55:44.919Z,61.34
2024-05-09T20:58:14.964Z,61.41
2024-05-09T21:00:46.251Z,61.45
2024-05-09T21:03:17.227Z,61.88
2024-05-09T21:05:48.844Z,62.66
2024-05-09T21:08:18.357Z,63.05
2024-05-09T21:10:47.682Z,63.90
2024-05-09T21:13:16.911Z,63.89
2024-05-09T21:15:46.186Z,63.98
2024-05-09T21:18:15.524Z,64.98
2024-05-09T21:20:44.606Z,65.56
2024-05-09T21:23:13.662Z,65.60
2024-05-09T21:25:42.976Z,65.57
2024-05-09T21:28:13.167Z,65.81
2024-05-09T21:30:43.270Z,65.76
2024-05-09T21:33:14.373Z,65.48
2024-05-09T21:35:44.644Z,63.90
2024-05-09T21:38:14.996Z,62.60
2024-05-09T21:40:45.331Z,62.13
2024-05-09T21:43:14.425Z,62.06
2024-05-09T21:45:43.973Z,62.48
2024-05-09T21:48:13.294Z,63.13
2024-05-09T21:50:42.760Z,63.47
2024-05-09T21:53:13.307Z,64.03
2024-05-09T21:55:43.389Z,63.73
2024-05-09T21:58:15.627Z,63.74
2024-05-09T22:00:46.055Z,64.47
2024-05-09T22:03:15.254Z,64.57
2024-05-09T22:05:45.467Z,64.88
2024-05-09T22:08:14.766Z,65.03
2024-05-09T22:10:44.081Z,64.95
2024-05-09T22:13:13.547Z,65.05
2024-05-09T22:15:42.983Z,65.32
2024-05-09T22:18:12.400Z,65.31
2024-05-09T22:20:45.102Z,65.86
2024-05-09T22:23:15.778Z,66.21
2024-05-09T22:25:44.781Z,65.91
2024-05-09T22:28:15.360Z,65.78
2024-05-09T22:30:46.577Z,65.58
2024-05-09T22:33:16.695Z,66.26
2024-05-09T22:35:45.648Z,67.29
2024-05-09T22:38:14.698Z,67.44
2024-05-09T22:40:48.330Z,67.81
2024-05-09T22:43:22.652Z,66.53
2024-05-09T22:45:56.660Z,64.46
2024-05-09T22:48:29.361Z,65.76
2024-05-09T22:50:58.518Z,65.99
2024-05-09T22:53:28.085Z,64.62
2024-05-09T22:55:57.035Z,65.57
2024-05-09T22:58:25.984Z,65.93
2024-05-09T23:00:55.311Z,65.35
2024-05-09T23:03:24.965Z,65.31
2024-05-09T23:05:56.056Z,64.93
2024-05-09T23:08:25.233Z,64.56
2024-05-09T23:10:53.909Z,63.62
2024-05-09T23:13:23.434Z,62.83
2024-05-09T23:15:52.738Z,61.96
2024-05-09T23:18:22.235Z,61.85
2024-05-09T23:20:51.732Z,61.46
2024-05-09T23:23:21.163Z,62.26
2024-05-09T23:25:50.289Z,62.78
2024-05-09T23:28:19.410Z,62.60
2024-05-09T23:30:48.648Z,62.70
2024-05-09T23:33:18.048Z,62.53
2024-05-09T23:35:46.928Z,62.53
2024-05-09T23:38:16.037Z,61.89
2024-05-09T23:40:45.484Z,61.47
2024-05-09T23:43:15.054Z,62.40
2024-05-09T23:45:44.371Z,62.58
2024-05-09T23:48:13.503Z,61.76
2024-05-09T23:50:42.948Z,62.22
2024-05-09T23:53:13.871Z,63.46
2024-05-09T23:55:42.939Z,62.41
2024-05-09T23:58:12.360Z,61.85
